sensor_id;sensor_type;location;lat;lon;timestamp;P1;P2;P0
47705;PMS5003;33471;52.104;1.318;2023-02-11T00:01:19;44;42;
47705;PMS5003;33471;52.104;1.318;2023-02-11T00:03:50;48;47;
47705;PMS5003;33471;52.104;1.318;2023-02-11T00:06:18;32;29;
47705;PMS5003;33471;52.104;1.318;2023-02-11T00:08:46;41;39;
47705;PMS5003;33471;52.104;1.318;2023-02-11T00:11:14;33;29;
47705;PMS5003;33471;52.104;1.318;2023-02-11T00:13:42;39;33;
47705;PMS5003;33471;52.104;1.318;2023-02-11T00:16:11;37;33;
47705;PMS5003;33471;52.104;1.318;2023-02-11T00:18:41;31;28;
47705;PMS5003;33471;52.104;1.318;2023-02-11T00:21:08;33;33;
47705;PMS5003;33471;52.104;1.318;2023-02-11T00:23:37;31;31;
47705;PMS5003;33471;52.104;1.318;2023-02-11T00:26:10;34;32;
47705;PMS5003;33471;52.104;1.318;2023-02-11T00:28:38;32;31;
47705;PMS5003;33471;52.104;1.318;2023-02-11T00:31:06;33;33;
47705;PMS5003;33471;52.104;1.318;2023-02-11T00:33:33;31;29;
47705;PMS5003;33471;52.104;1.318;2023-02-11T00:36:02;37;37;
47705;PMS5003;33471;52.104;1.318;2023-02-11T00:38:30;33;33;
47705;PMS5003;33471;52.104;1.318;2023-02-11T00:40:57;37;35;
47705;PMS5003;33471;52.104;1.318;2023-02-11T00:43:25;31;28;
47705;PMS5003;33471;52.104;1.318;2023-02-11T00:45:53;42;36;
47705;PMS5003;33471;52.104;1.318;2023-02-11T00:48:21;40;33;
47705;PMS5003;33471;52.104;1.318;2023-02-11T00:50:48;41;35;
47705;PMS5003;33471;52.104;1.318;2023-02-11T00:53:15;26;25;
47705;PMS5003;33471;52.104;1.318;2023-02-11T00:55:41;35;32;
47705;PMS5003;33471;52.104;1.318;2023-02-11T00:58:08;34;32;
47705;PMS5003;33471;52.104;1.318;2023-02-11T01:00:36;39;35;
47705;PMS5003;33471;52.104;1.318;2023-02-11T01:03:03;30;29;
47705;PMS5003;33471;52.104;1.318;2023-02-11T01:05:31;26;26;
47705;PMS5003;33471;52.104;1.318;2023-02-11T01:07:59;36;34;
47705;PMS5003;33471;52.104;1.318;2023-02-11T01:10:27;29;28;
47705;PMS5003;33471;52.104;1.318;2023-02-11T01:12:54;32;27;
47705;PMS5003;33471;52.104;1.318;2023-02-11T01:15:21;33;32;
47705;PMS5003;33471;52.104;1.318;2023-02-11T01:17:48;33;28;
47705;PMS5003;33471;52.104;1.318;2023-02-11T01:20:16;34;34;
47705;PMS5003;33471;52.104;1.318;2023-02-11T01:22:46;34;31;
47705;PMS5003;33471;52.104;1.318;2023-02-11T01:25:13;29;26;
47705;PMS5003;33471;52.104;1.318;2023-02-11T01:27:40;34;32;
47705;PMS5003;33471;52.104;1.318;2023-02-11T01:30:08;33;32;
47705;PMS5003;33471;52.104;1.318;2023-02-11T01:32:38;37;34;
47705;PMS5003;33471;52.104;1.318;2023-02-11T01:35:06;38;34;
47705;PMS5003;33471;52.104;1.318;2023-02-11T01:37:34;36;34;
47705;PMS5003;33471;52.104;1.318;2023-02-11T01:40:02;33;30;
47705;PMS5003;33471;52.104;1.318;2023-02-11T01:42:33;37;35;
47705;PMS5003;33471;52.104;1.318;2023-02-11T01:45:00;33;32;
47705;PMS5003;33471;52.104;1.318;2023-02-11T01:48:08;35;34;
47705;PMS5003;33471;52.104;1.318;2023-02-11T01:50:37;27;27;
47705;PMS5003;33471;52.104;1.318;2023-02-11T01:53:07;38;34;
47705;PMS5003;33471;52.104;1.318;2023-02-11T01:55:37;33;33;
47705;PMS5003;33471;52.104;1.318;2023-02-11T01:58:04;37;34;
47705;PMS5003;33471;52.104;1.318;2023-02-11T02:00:32;39;35;
47705;PMS5003;33471;52.104;1.318;2023-02-11T02:03:03;28;28;
47705;PMS5003;33471;52.104;1.318;2023-02-11T02:05:34;25;25;
47705;PMS5003;33471;52.104;1.318;2023-02-11T02:08:10;43;37;
47705;PMS5003;33471;52.104;1.318;2023-02-11T02:10:43;38;33;
47705;PMS5003;33471;52.104;1.318;2023-02-11T02:13:13;37;34;
47705;PMS5003;33471;52.104;1.318;2023-02-11T02:15:43;31;31;
47705;PMS5003;33471;52.104;1.318;2023-02-11T02:18:19;32;30;
47705;PMS5003;33471;52.104;1.318;2023-02-11T02:21:40;34;33;
47705;PMS5003;33471;52.104;1.318;2023-02-11T02:24:29;33;32;
47705;PMS5003;33471;52.104;1.318;2023-02-11T02:27:14;32;30;
47705;PMS5003;33471;52.104;1.318;2023-02-11T02:30:00;29;29;
47705;PMS5003;33471;52.104;1.318;2023-02-11T02:30:47;29;29;
47705;PMS5003;33471;52.104;1.318;2023-02-11T02:33:29;41;34;
47705;PMS5003;33471;52.104;1.318;2023-02-11T02:36:06;34;32;
47705;PMS5003;33471;52.104;1.318;2023-02-11T02:38:42;34;34;
47705;PMS5003;33471;52.104;1.318;2023-02-11T02:41:14;37;35;
47705;PMS5003;33471;52.104;1.318;2023-02-11T02:43:47;30;29;
47705;PMS5003;33471;52.104;1.318;2023-02-11T02:46:17;39;35;
47705;PMS5003;33471;52.104;1.318;2023-02-11T02:48:46;34;33;
47705;PMS5003;33471;52.104;1.318;2023-02-11T02:51:19;26;24;
47705;PMS5003;33471;52.104;1.318;2023-02-11T02:54:03;34;30;
47705;PMS5003;33471;52.104;1.318;2023-02-11T02:56:47;31;28;
47705;PMS5003;33471;52.104;1.318;2023-02-11T02:59:24;34;33;
47705;PMS5003;33471;52.104;1.318;2023-02-11T03:02:04;37;36;
47705;PMS5003;33471;52.104;1.318;2023-02-11T03:04:40;28;26;
47705;PMS5003;33471;52.104;1.318;2023-02-11T03:07:15;30;27;
47705;PMS5003;33471;52.104;1.318;2023-02-11T03:09:50;29;28;
47705;PMS5003;33471;52.104;1.318;2023-02-11T03:12:21;34;34;
47705;PMS5003;33471;52.104;1.318;2023-02-11T03:14:51;34;31;
47705;PMS5003;33471;52.104;1.318;2023-02-11T03:17:19;33;29;
47705;PMS5003;33471;52.104;1.318;2023-02-11T03:19:49;31;26;
47705;PMS5003;33471;52.104;1.318;2023-02-11T03:22:18;31;27;
47705;PMS5003;33471;52.104;1.318;2023-02-11T03:24:48;35;29;
47705;PMS5003;33471;52.104;1.318;2023-02-11T03:27:17;30;28;
47705;PMS5003;33471;52.104;1.318;2023-02-11T03:29:52;26;25;
47705;PMS5003;33471;52.104;1.318;2023-02-11T03:32:24;36;33;
47705;PMS5003;33471;52.104;1.318;2023-02-11T03:34:55;32;29;
47705;PMS5003;33471;52.104;1.318;2023-02-11T03:37:27;27;23;
47705;PMS5003;33471;52.104;1.318;2023-02-11T03:39:59;35;32;
47705;PMS5003;33471;52.104;1.318;2023-02-11T03:42:30;31;30;
47705;PMS5003;33471;52.104;1.318;2023-02-11T03:45:03;33;28;
47705;PMS5003;33471;52.104;1.318;2023-02-11T03:47:34;30;29;
47705;PMS5003;33471;52.104;1.318;2023-02-11T03:50:05;35;30;
47705;PMS5003;33471;52.104;1.318;2023-02-11T03:52:36;28;27;
47705;PMS5003;33471;52.104;1.318;2023-02-11T03:55:05;25;24;
47705;PMS5003;33471;52.104;1.318;2023-02-11T03:57:38;32;28;
47705;PMS5003;33471;52.104;1.318;2023-02-11T04:00:06;35;35;
47705;PMS5003;33471;52.104;1.318;2023-02-11T04:02:36;29;28;
47705;PMS5003;33471;52.104;1.318;2023-02-11T04:05:05;34;31;
47705;PMS5003;33471;52.104;1.318;2023-02-11T04:07:34;33;31;
47705;PMS5003;33471;52.104;1.318;2023-02-11T04:10:01;31;29;
47705;PMS5003;33471;52.104;1.318;2023-02-11T04:12:28;25;21;
47705;PMS5003;33471;52.104;1.318;2023-02-11T04:14:56;38;32;
47705;PMS5003;33471;52.104;1.318;2023-02-11T04:17:23;30;28;
47705;PMS5003;33471;52.104;1.318;2023-02-11T04:19:50;27;27;
47705;PMS5003;33471;52.104;1.318;2023-02-11T04:22:18;30;30;
47705;PMS5003;33471;52.104;1.318;2023-02-11T04:24:45;33;31;
47705;PMS5003;33471;52.104;1.318;2023-02-11T04:27:13;30;29;
47705;PMS5003;33471;52.104;1.318;2023-02-11T04:29:40;26;24;
47705;PMS5003;33471;52.104;1.318;2023-02-11T04:32:08;34;30;
47705;PMS5003;33471;52.104;1.318;2023-02-11T04:34:36;30;27;
47705;PMS5003;33471;52.104;1.318;2023-02-11T04:37:03;30;27;
47705;PMS5003;33471;52.104;1.318;2023-02-11T04:39:31;33;27;
47705;PMS5003;33471;52.104;1.318;2023-02-11T04:41:58;31;24;
47705;PMS5003;33471;52.104;1.318;2023-02-11T04:44:25;28;26;
47705;PMS5003;33471;52.104;1.318;2023-02-11T04:46:53;28;27;
47705;PMS5003;33471;52.104;1.318;2023-02-11T04:49:20;32;29;
47705;PMS5003;33471;52.104;1.318;2023-02-11T04:51:47;33;33;
47705;PMS5003;33471;52.104;1.318;2023-02-11T04:54:15;40;32;
47705;PMS5003;33471;52.104;1.318;2023-02-11T04:56:42;29;28;
47705;PMS5003;33471;52.104;1.318;2023-02-11T04:59:10;28;26;
47705;PMS5003;33471;52.104;1.318;2023-02-11T05:01:38;26;26;
47705;PMS5003;33471;52.104;1.318;2023-02-11T05:04:05;30;29;
47705;PMS5003;33471;52.104;1.318;2023-02-11T05:06:32;26;24;
47705;PMS5003;33471;52.104;1.318;2023-02-11T05:09:00;35;31;
47705;PMS5003;33471;52.104;1.318;2023-02-11T05:11:27;29;29;
47705;PMS5003;33471;52.104;1.318;2023-02-11T05:13:54;37;28;
47705;PMS5003;33471;52.104;1.318;2023-02-11T05:16:21;33;31;
47705;PMS5003;33471;52.104;1.318;2023-02-11T05:18:49;32;30;
47705;PMS5003;33471;52.104;1.318;2023-02-11T05:21:17;30;30;
47705;PMS5003;33471;52.104;1.318;2023-02-11T05:23:44;32;29;
47705;PMS5003;33471;52.104;1.318;2023-02-11T05:26:13;28;25;
47705;PMS5003;33471;52.104;1.318;2023-02-11T05:28:41;36;34;
47705;PMS5003;33471;52.104;1.318;2023-02-11T05:31:09;34;33;
47705;PMS5003;33471;52.104;1.318;2023-02-11T05:33:37;31;30;
47705;PMS5003;33471;52.104;1.318;2023-02-11T05:36:06;31;28;
47705;PMS5003;33471;52.104;1.318;2023-02-11T05:38:35;27;27;
47705;PMS5003;33471;52.104;1.318;2023-02-11T05:41:03;33;30;
47705;PMS5003;33471;52.104;1.318;2023-02-11T05:43:31;37;32;
47705;PMS5003;33471;52.104;1.318;2023-02-11T05:45:59;37;29;
47705;PMS5003;33471;52.104;1.318;2023-02-11T05:48:27;28;27;
47705;PMS5003;33471;52.104;1.318;2023-02-11T05:50:54;30;28;
47705;PMS5003;33471;52.104;1.318;2023-02-11T05:53:21;29;26;
47705;PMS5003;33471;52.104;1.318;2023-02-11T05:55:49;31;31;
47705;PMS5003;33471;52.104;1.318;2023-02-11T05:58:16;32;30;
47705;PMS5003;33471;52.104;1.318;2023-02-11T06:00:43;29;28;
47705;PMS5003;33471;52.104;1.318;2023-02-11T06:03:10;26;19;
47705;PMS5003;33471;52.104;1.318;2023-02-11T06:05:37;34;29;
47705;PMS5003;33471;52.104;1.318;2023-02-11T06:08:05;28;25;
47705;PMS5003;33471;52.104;1.318;2023-02-11T06:10:33;32;27;
47705;PMS5003;33471;52.104;1.318;2023-02-11T06:13:00;35;29;
47705;PMS5003;33471;52.104;1.318;2023-02-11T06:15:28;29;29;
47705;PMS5003;33471;52.104;1.318;2023-02-11T06:17:55;30;28;
47705;PMS5003;33471;52.104;1.318;2023-02-11T06:20:23;30;28;
47705;PMS5003;33471;52.104;1.318;2023-02-11T06:22:50;34;32;
47705;PMS5003;33471;52.104;1.318;2023-02-11T06:25:17;29;26;
47705;PMS5003;33471;52.104;1.318;2023-02-11T06:27:45;28;25;
47705;PMS5003;33471;52.104;1.318;2023-02-11T06:30:13;31;29;
47705;PMS5003;33471;52.104;1.318;2023-02-11T06:32:40;26;24;
47705;PMS5003;33471;52.104;1.318;2023-02-11T06:35:07;30;30;
47705;PMS5003;33471;52.104;1.318;2023-02-11T06:37:34;28;26;
47705;PMS5003;33471;52.104;1.318;2023-02-11T06:40:02;34;31;
47705;PMS5003;33471;52.104;1.318;2023-02-11T06:42:29;35;32;
47705;PMS5003;33471;52.104;1.318;2023-02-11T06:44:57;27;23;
47705;PMS5003;33471;52.104;1.318;2023-02-11T06:47:23;30;30;
47705;PMS5003;33471;52.104;1.318;2023-02-11T06:49:50;29;28;
47705;PMS5003;33471;52.104;1.318;2023-02-11T06:52:17;35;31;
47705;PMS5003;33471;52.104;1.318;2023-02-11T06:54:44;28;24;
47705;PMS5003;33471;52.104;1.318;2023-02-11T06:57:12;33;28;
47705;PMS5003;33471;52.104;1.318;2023-02-11T06:59:39;26;26;
47705;PMS5003;33471;52.104;1.318;2023-02-11T07:02:07;27;21;
47705;PMS5003;33471;52.104;1.318;2023-02-11T07:04:36;28;27;
47705;PMS5003;33471;52.104;1.318;2023-02-11T07:07:03;41;34;
47705;PMS5003;33471;52.104;1.318;2023-02-11T07:09:31;44;42;
47705;PMS5003;33471;52.104;1.318;2023-02-11T07:11:59;38;36;
47705;PMS5003;33471;52.104;1.318;2023-02-11T07:14:26;45;41;
47705;PMS5003;33471;52.104;1.318;2023-02-11T07:16:53;30;29;
47705;PMS5003;33471;52.104;1.318;2023-02-11T07:19:20;33;30;
47705;PMS5003;33471;52.104;1.318;2023-02-11T07:21:47;32;31;
47705;PMS5003;33471;52.104;1.318;2023-02-11T07:24:15;28;27;
47705;PMS5003;33471;52.104;1.318;2023-02-11T07:26:42;25;20;
47705;PMS5003;33471;52.104;1.318;2023-02-11T07:29:09;38;35;
47705;PMS5003;33471;52.104;1.318;2023-02-11T07:31:36;63;62;
47705;PMS5003;33471;52.104;1.318;2023-02-11T07:34:03;55;53;
47705;PMS5003;33471;52.104;1.318;2023-02-11T07:36:30;52;46;
47705;PMS5003;33471;52.104;1.318;2023-02-11T07:38:58;29;26;
47705;PMS5003;33471;52.104;1.318;2023-02-11T07:41:26;37;34;
47705;PMS5003;33471;52.104;1.318;2023-02-11T07:43:54;29;26;
47705;PMS5003;33471;52.104;1.318;2023-02-11T07:46:22;31;27;
47705;PMS5003;33471;52.104;1.318;2023-02-11T07:48:52;39;34;
47705;PMS5003;33471;52.104;1.318;2023-02-11T07:51:20;29;28;
47705;PMS5003;33471;52.104;1.318;2023-02-11T07:53:49;35;33;
47705;PMS5003;33471;52.104;1.318;2023-02-11T07:56:17;29;23;
47705;PMS5003;33471;52.104;1.318;2023-02-11T07:58:45;38;37;
47705;PMS5003;33471;52.104;1.318;2023-02-11T08:01:13;43;35;
47705;PMS5003;33471;52.104;1.318;2023-02-11T08:03:42;40;37;
47705;PMS5003;33471;52.104;1.318;2023-02-11T08:06:11;42;39;
47705;PMS5003;33471;52.104;1.318;2023-02-11T08:08:40;49;48;
47705;PMS5003;33471;52.104;1.318;2023-02-11T08:11:09;46;42;
47705;PMS5003;33471;52.104;1.318;2023-02-11T08:13:38;63;55;
47705;PMS5003;33471;52.104;1.318;2023-02-11T08:16:06;73;68;
47705;PMS5003;33471;52.104;1.318;2023-02-11T08:18:35;80;71;
47705;PMS5003;33471;52.104;1.318;2023-02-11T08:21:03;86;81;
47705;PMS5003;33471;52.104;1.318;2023-02-11T08:23:31;75;68;
47705;PMS5003;33471;52.104;1.318;2023-02-11T08:26:00;87;81;
47705;PMS5003;33471;52.104;1.318;2023-02-11T08:28:28;71;68;
47705;PMS5003;33471;52.104;1.318;2023-02-11T08:30:55;72;64;
47705;PMS5003;33471;52.104;1.318;2023-02-11T08:33:22;64;64;
47705;PMS5003;33471;52.104;1.318;2023-02-11T08:35:49;71;68;
47705;PMS5003;33471;52.104;1.318;2023-02-11T08:38:16;55;48;
47705;PMS5003;33471;52.104;1.318;2023-02-11T08:40:43;69;60;
47705;PMS5003;33471;52.104;1.318;2023-02-11T08:43:10;72;65;
47705;PMS5003;33471;52.104;1.318;2023-02-11T08:45:38;64;62;
47705;PMS5003;33471;52.104;1.318;2023-02-11T08:48:05;63;59;
47705;PMS5003;33471;52.104;1.318;2023-02-11T08:50:33;67;63;
47705;PMS5003;33471;52.104;1.318;2023-02-11T08:53:00;57;52;
47705;PMS5003;33471;52.104;1.318;2023-02-11T08:55:27;63;63;
47705;PMS5003;33471;52.104;1.318;2023-02-11T08:57:54;63;55;
47705;PMS5003;33471;52.104;1.318;2023-02-11T09:00:22;58;57;
47705;PMS5003;33471;52.104;1.318;2023-02-11T09:02:50;53;52;
47705;PMS5003;33471;52.104;1.318;2023-02-11T09:05:17;50;45;
47705;PMS5003;33471;52.104;1.318;2023-02-11T09:07:44;57;49;
47705;PMS5003;33471;52.104;1.318;2023-02-11T09:10:12;44;41;
47705;PMS5003;33471;52.104;1.318;2023-02-11T09:12:39;47;43;
47705;PMS5003;33471;52.104;1.318;2023-02-11T09:15:07;45;42;
47705;PMS5003;33471;52.104;1.318;2023-02-11T09:17:35;58;44;
47705;PMS5003;33471;52.104;1.318;2023-02-11T09:20:03;39;36;
47705;PMS5003;33471;52.104;1.318;2023-02-11T09:22:31;28;28;
47705;PMS5003;33471;52.104;1.318;2023-02-11T09:24:58;37;33;
47705;PMS5003;33471;52.104;1.318;2023-02-11T09:27:25;39;37;
47705;PMS5003;33471;52.104;1.318;2023-02-11T09:29:52;40;33;
47705;PMS5003;33471;52.104;1.318;2023-02-11T09:32:19;35;31;
47705;PMS5003;33471;52.104;1.318;2023-02-11T09:34:46;30;29;
47705;PMS5003;33471;52.104;1.318;2023-02-11T09:37:13;42;37;
47705;PMS5003;33471;52.104;1.318;2023-02-11T09:39:40;35;31;
47705;PMS5003;33471;52.104;1.318;2023-02-11T09:42:17;32;30;
47705;PMS5003;33471;52.104;1.318;2023-02-11T09:45:03;27;24;
47705;PMS5003;33471;52.104;1.318;2023-02-11T09:47:37;22;20;
47705;PMS5003;33471;52.104;1.318;2023-02-11T09:50:14;20;18;
47705;PMS5003;33471;52.104;1.318;2023-02-11T09:52:50;22;22;
47705;PMS5003;33471;52.104;1.318;2023-02-11T09:55:23;21;20;
47705;PMS5003;33471;52.104;1.318;2023-02-11T09:57:53;29;25;
47705;PMS5003;33471;52.104;1.318;2023-02-11T10:00:22;25;24;
47705;PMS5003;33471;52.104;1.318;2023-02-11T10:02:56;20;16;
47705;PMS5003;33471;52.104;1.318;2023-02-11T10:05:39;14;12;
47705;PMS5003;33471;52.104;1.318;2023-02-11T10:08:21;21;20;
47705;PMS5003;33471;52.104;1.318;2023-02-11T10:10:56;28;26;
47705;PMS5003;33471;52.104;1.318;2023-02-11T10:13:34;20;20;
47705;PMS5003;33471;52.104;1.318;2023-02-11T10:16:15;16;15;
47705;PMS5003;33471;52.104;1.318;2023-02-11T10:19:03;20;18;
47705;PMS5003;33471;52.104;1.318;2023-02-11T10:21:47;13;13;
47705;PMS5003;33471;52.104;1.318;2023-02-11T10:24:23;18;17;
47705;PMS5003;33471;52.104;1.318;2023-02-11T10:26:51;15;14;
47705;PMS5003;33471;52.104;1.318;2023-02-11T10:29:23;21;16;
47705;PMS5003;33471;52.104;1.318;2023-02-11T10:31:59;26;25;
47705;PMS5003;33471;52.104;1.318;2023-02-11T10:34:31;25;23;
47705;PMS5003;33471;52.104;1.318;2023-02-11T10:36:58;24;24;
47705;PMS5003;33471;52.104;1.318;2023-02-11T10:39:25;26;25;
47705;PMS5003;33471;52.104;1.318;2023-02-11T10:41:55;23;18;
47705;PMS5003;33471;52.104;1.318;2023-02-11T10:44:28;23;21;
47705;PMS5003;33471;52.104;1.318;2023-02-11T10:46:58;24;22;
47705;PMS5003;33471;52.104;1.318;2023-02-11T10:49:33;17;17;
47705;PMS5003;33471;52.104;1.318;2023-02-11T10:52:16;23;23;
47705;PMS5003;33471;52.104;1.318;2023-02-11T10:55:03;17;16;
47705;PMS5003;33471;52.104;1.318;2023-02-11T10:57:40;18;17;
47705;PMS5003;33471;52.104;1.318;2023-02-11T11:00:32;24;22;
47705;PMS5003;33471;52.104;1.318;2023-02-11T11:03:01;22;22;
47705;PMS5003;33471;52.104;1.318;2023-02-11T11:05:31;22;22;
47705;PMS5003;33471;52.104;1.318;2023-02-11T11:08:01;18;18;
47705;PMS5003;33471;52.104;1.318;2023-02-11T11:10:34;20;19;
47705;PMS5003;33471;52.104;1.318;2023-02-11T11:13:07;29;28;
47705;PMS5003;33471;52.104;1.318;2023-02-11T11:16:05;23;19;
47705;PMS5003;33471;52.104;1.318;2023-02-11T11:18:35;24;21;
47705;PMS5003;33471;52.104;1.318;2023-02-11T11:21:04;26;23;
47705;PMS5003;33471;52.104;1.318;2023-02-11T11:23:33;18;16;
47705;PMS5003;33471;52.104;1.318;2023-02-11T11:26:03;27;22;
47705;PMS5003;33471;52.104;1.318;2023-02-11T11:28:35;24;24;
47705;PMS5003;33471;52.104;1.318;2023-02-11T11:31:05;26;24;
47705;PMS5003;33471;52.104;1.318;2023-02-11T11:33:40;21;21;
47705;PMS5003;33471;52.104;1.318;2023-02-11T11:36:10;25;24;
47705;PMS5003;33471;52.104;1.318;2023-02-11T11:38:42;21;17;
47705;PMS5003;33471;52.104;1.318;2023-02-11T11:41:13;23;22;
47705;PMS5003;33471;52.104;1.318;2023-02-11T11:44:00;26;26;
47705;PMS5003;33471;52.104;1.318;2023-02-11T11:46:31;19;18;
47705;PMS5003;33471;52.104;1.318;2023-02-11T11:49:06;23;21;
47705;PMS5003;33471;52.104;1.318;2023-02-11T11:51:48;13;13;
47705;PMS5003;33471;52.104;1.318;2023-02-11T11:54:21;9;9;
47705;PMS5003;33471;52.104;1.318;2023-02-11T11:56:55;9;9;
47705;PMS5003;33471;52.104;1.318;2023-02-11T11:59:28;15;14;
47705;PMS5003;33471;52.104;1.318;2023-02-11T12:02:00;10;10;
47705;PMS5003;33471;52.104;1.318;2023-02-11T12:04:53;6;6;
47705;PMS5003;33471;52.104;1.318;2023-02-11T12:07:31;13;10;
47705;PMS5003;33471;52.104;1.318;2023-02-11T12:10:32;10;10;
47705;PMS5003;33471;52.104;1.318;2023-02-11T12:13:08;12;10;
47705;PMS5003;33471;52.104;1.318;2023-02-11T12:15:51;9;9;
47705;PMS5003;33471;52.104;1.318;2023-02-11T12:18:29;12;12;
47705;PMS5003;33471;52.104;1.318;2023-02-11T12:21:16;8;8;
47705;PMS5003;33471;52.104;1.318;2023-02-11T12:23:57;7;7;
47705;PMS5003;33471;52.104;1.318;2023-02-11T12:26:39;9;9;
47705;PMS5003;33471;52.104;1.318;2023-02-11T12:29:15;9;9;
47705;PMS5003;33471;52.104;1.318;2023-02-11T12:31:57;7;7;
47705;PMS5003;33471;52.104;1.318;2023-02-11T12:34:35;10;9;
47705;PMS5003;33471;52.104;1.318;2023-02-11T12:37:18;10;9;
47705;PMS5003;33471;52.104;1.318;2023-02-11T12:39:55;9;9;
47705;PMS5003;33471;52.104;1.318;2023-02-11T12:42:38;23;23;
47705;PMS5003;33471;52.104;1.318;2023-02-11T12:45:19;13;13;
47705;PMS5003;33471;52.104;1.318;2023-02-11T12:47:59;5;5;
47705;PMS5003;33471;52.104;1.318;2023-02-11T12:50:37;6;6;
47705;PMS5003;33471;52.104;1.318;2023-02-11T12:53:19;12;11;
47705;PMS5003;33471;52.104;1.318;2023-02-11T12:56:03;18;15;
47705;PMS5003;33471;52.104;1.318;2023-02-11T12:58:35;8;8;
47705;PMS5003;33471;52.104;1.318;2023-02-11T13:01:07;9;9;
47705;PMS5003;33471;52.104;1.318;2023-02-11T13:03:38;17;15;
47705;PMS5003;33471;52.104;1.318;2023-02-11T13:06:10;10;10;
47705;PMS5003;33471;52.104;1.318;2023-02-11T13:08:41;10;10;
47705;PMS5003;33471;52.104;1.318;2023-02-11T13:11:12;12;11;
47705;PMS5003;33471;52.104;1.318;2023-02-11T13:13:46;11;11;
47705;PMS5003;33471;52.104;1.318;2023-02-11T13:16:19;12;11;
47705;PMS5003;33471;52.104;1.318;2023-02-11T13:19:00;9;8;
47705;PMS5003;33471;52.104;1.318;2023-02-11T13:21:36;9;9;
47705;PMS5003;33471;52.104;1.318;2023-02-11T13:24:16;16;16;
47705;PMS5003;33471;52.104;1.318;2023-02-11T13:26:55;9;9;
47705;PMS5003;33471;52.104;1.318;2023-02-11T13:29:30;11;11;
47705;PMS5003;33471;52.104;1.318;2023-02-11T13:32:05;10;8;
47705;PMS5003;33471;52.104;1.318;2023-02-11T13:35:25;8;8;
47705;PMS5003;33471;52.104;1.318;2023-02-11T13:37:53;12;11;
47705;PMS5003;33471;52.104;1.318;2023-02-11T13:40:22;14;12;
47705;PMS5003;33471;52.104;1.318;2023-02-11T13:42:53;10;10;
47705;PMS5003;33471;52.104;1.318;2023-02-11T13:45:27;8;8;
47705;PMS5003;33471;52.104;1.318;2023-02-11T13:47:56;12;12;
47705;PMS5003;33471;52.104;1.318;2023-02-11T13:50:25;12;12;
47705;PMS5003;33471;52.104;1.318;2023-02-11T13:52:56;18;17;
47705;PMS5003;33471;52.104;1.318;2023-02-11T13:55:26;11;11;
47705;PMS5003;33471;52.104;1.318;2023-02-11T13:58:35;12;11;
47705;PMS5003;33471;52.104;1.318;2023-02-11T14:01:11;20;20;
47705;PMS5003;33471;52.104;1.318;2023-02-11T14:04:12;11;11;
47705;PMS5003;33471;52.104;1.318;2023-02-11T14:07:20;13;12;
47705;PMS5003;33471;52.104;1.318;2023-02-11T14:09:52;15;14;
47705;PMS5003;33471;52.104;1.318;2023-02-11T14:12:24;13;13;
47705;PMS5003;33471;52.104;1.318;2023-02-11T14:15:09;19;17;
47705;PMS5003;33471;52.104;1.318;2023-02-11T14:17:46;19;19;
47705;PMS5003;33471;52.104;1.318;2023-02-11T14:20:45;11;10;
47705;PMS5003;33471;52.104;1.318;2023-02-11T14:23:22;15;15;
47705;PMS5003;33471;52.104;1.318;2023-02-11T14:25:58;14;14;
47705;PMS5003;33471;52.104;1.318;2023-02-11T14:28:33;15;15;
47705;PMS5003;33471;52.104;1.318;2023-02-11T14:31:02;11;10;
47705;PMS5003;33471;52.104;1.318;2023-02-11T14:33:58;15;15;
47705;PMS5003;33471;52.104;1.318;2023-02-11T14:36:58;13;11;
47705;PMS5003;33471;52.104;1.318;2023-02-11T14:39:40;16;15;
47705;PMS5003;33471;52.104;1.318;2023-02-11T14:42:21;28;24;
47705;PMS5003;33471;52.104;1.318;2023-02-11T14:44:51;16;14;
47705;PMS5003;33471;52.104;1.318;2023-02-11T14:47:22;21;17;
47705;PMS5003;33471;52.104;1.318;2023-02-11T14:49:54;17;16;
47705;PMS5003;33471;52.104;1.318;2023-02-11T14:52:24;19;19;
47705;PMS5003;33471;52.104;1.318;2023-02-11T14:54:55;23;23;
47705;PMS5003;33471;52.104;1.318;2023-02-11T14:57:30;22;20;
47705;PMS5003;33471;52.104;1.318;2023-02-11T14:59:58;17;17;
47705;PMS5003;33471;52.104;1.318;2023-02-11T15:02:28;16;16;
47705;PMS5003;33471;52.104;1.318;2023-02-11T15:05:30;20;18;
47705;PMS5003;33471;52.104;1.318;2023-02-11T15:07:59;19;19;
47705;PMS5003;33471;52.104;1.318;2023-02-11T15:10:30;19;17;
47705;PMS5003;33471;52.104;1.318;2023-02-11T15:13:01;16;15;
47705;PMS5003;33471;52.104;1.318;2023-02-11T15:15:31;23;22;
47705;PMS5003;33471;52.104;1.318;2023-02-11T15:18:00;14;13;
47705;PMS5003;33471;52.104;1.318;2023-02-11T15:20:30;13;13;
47705;PMS5003;33471;52.104;1.318;2023-02-11T15:23:00;23;22;
47705;PMS5003;33471;52.104;1.318;2023-02-11T15:25:31;14;12;
47705;PMS5003;33471;52.104;1.318;2023-02-11T15:27:58;13;13;
47705;PMS5003;33471;52.104;1.318;2023-02-11T15:30:27;12;11;
47705;PMS5003;33471;52.104;1.318;2023-02-11T15:32:58;14;13;
47705;PMS5003;33471;52.104;1.318;2023-02-11T15:35:28;12;12;
47705;PMS5003;33471;52.104;1.318;2023-02-11T15:37:57;11;10;
47705;PMS5003;33471;52.104;1.318;2023-02-11T15:40:26;9;9;
47705;PMS5003;33471;52.104;1.318;2023-02-11T15:42:55;9;8;
47705;PMS5003;33471;52.104;1.318;2023-02-11T15:45:25;8;8;
47705;PMS5003;33471;52.104;1.318;2023-02-11T15:47:58;7;7;
47705;PMS5003;33471;52.104;1.318;2023-02-11T15:50:32;8;8;
47705;PMS5003;33471;52.104;1.318;2023-02-11T15:53:02;7;5;
47705;PMS5003;33471;52.104;1.318;2023-02-11T15:55:45;10;9;
47705;PMS5003;33471;52.104;1.318;2023-02-11T15:58:14;15;15;
47705;PMS5003;33471;52.104;1.318;2023-02-11T16:00:44;9;9;
47705;PMS5003;33471;52.104;1.318;2023-02-11T16:03:22;12;10;
47705;PMS5003;33471;52.104;1.318;2023-02-11T16:05:50;12;10;
47705;PMS5003;33471;52.104;1.318;2023-02-11T16:08:21;33;33;
47705;PMS5003;33471;52.104;1.318;2023-02-11T16:10:53;16;16;
47705;PMS5003;33471;52.104;1.318;2023-02-11T16:13:21;27;26;
47705;PMS5003;33471;52.104;1.318;2023-02-11T16:15:49;30;24;
47705;PMS5003;33471;52.104;1.318;2023-02-11T16:18:23;24;21;
47705;PMS5003;33471;52.104;1.318;2023-02-11T16:20:54;27;25;
47705;PMS5003;33471;52.104;1.318;2023-02-11T16:23:23;24;21;
47705;PMS5003;33471;52.104;1.318;2023-02-11T16:25:54;25;24;
47705;PMS5003;33471;52.104;1.318;2023-02-11T16:28:25;27;27;
47705;PMS5003;33471;52.104;1.318;2023-02-11T16:30:53;23;22;
47705;PMS5003;33471;52.104;1.318;2023-02-11T16:33:22;13;13;
47705;PMS5003;33471;52.104;1.318;2023-02-11T16:35:49;16;14;
47705;PMS5003;33471;52.104;1.318;2023-02-11T16:38:17;13;13;
47705;PMS5003;33471;52.104;1.318;2023-02-11T16:40:45;13;13;
47705;PMS5003;33471;52.104;1.318;2023-02-11T16:43:13;15;14;
47705;PMS5003;33471;52.104;1.318;2023-02-11T16:45:44;10;10;
47705;PMS5003;33471;52.104;1.318;2023-02-11T16:48:14;16;15;